Ryland, Alabama
Current Conditions -  °F | °C
As of 5:55 AM on Monday 24 Nov 2014 (Local Time) from KMDQ Reporting Station
Scattered Clouds Scattered Clouds  
Wind Chill: 61°   Ceiling: Unl
Heat Index: 61°   Visibility: 10mi
Dew Point: 52°   Wind: 13mph
Humidity: 72%   Direction: 200°SSW
Pressure: 29.64"   Gusts: 23mph
Location:  34.77°N, 86.48°W
Report Text: KMDQ 241155Z AUTO 20011G20KT 10SM SCT025 SCT033 16/11 A2964 RMK AO2
Loading
Personal Weather Stations






























Interactive Weather Map New forecast layout! Learn more

10-Day Weather Forecast

Advertisements
Track Severe Weather on mobile